sensor_id;sensor_type;location;lat;lon;timestamp;pressure;altitude;pressure_sealevel;temperature;humidity
8575;BME280;4325;42.520;27.448;2023-04-19T00:02:01;100592.34;;;13.23;100.00
8575;BME280;4325;42.520;27.448;2023-04-19T00:04:28;100586.38;;;13.16;100.00
8575;BME280;4325;42.520;27.448;2023-04-19T00:06:55;100582.03;;;13.10;100.00
8575;BME280;4325;42.520;27.448;2023-04-19T00:09:24;100581.00;;;13.06;100.00
8575;BME280;4325;42.520;27.448;2023-04-19T00:11:51;100579.91;;;13.02;100.00
8575;BME280;4325;42.520;27.448;2023-04-19T00:14:18;100573.59;;;13.02;100.00
8575;BME280;4325;42.520;27.448;2023-04-19T00:16:45;100571.94;;;13.01;100.00
8575;BME280;4325;42.520;27.448;2023-04-19T00:19:12;100573.34;;;12.98;100.00
8575;BME280;4325;42.520;27.448;2023-04-19T00:21:38;100560.72;;;12.97;100.00
8575;BME280;4325;42.520;27.448;2023-04-19T00:24:05;100560.13;;;13.00;100.00
8575;BME280;4325;42.520;27.448;2023-04-19T00:26:34;100558.19;;;13.06;100.00
8575;BME280;4325;42.520;27.448;2023-04-19T00:29:00;100564.50;;;13.06;100.00
8575;BME280;4325;42.520;27.448;2023-04-19T00:31:27;100568.88;;;13.07;100.00
8575;BME280;4325;42.520;27.448;2023-04-19T00:33:55;100570.47;;;13.13;100.00
8575;BME280;4325;42.520;27.448;2023-04-19T00:36:22;100566.13;;;13.07;100.00
8575;BME280;4325;42.520;27.448;2023-04-19T00:38:49;100564.22;;;13.03;100.00
8575;BME280;4325;42.520;27.448;2023-04-19T00:41:15;100567.50;;;13.05;100.00
8575;BME280;4325;42.520;27.448;2023-04-19T00:43:44;100563.69;;;13.06;100.00
8575;BME280;4325;42.520;27.448;2023-04-19T00:46:11;100561.72;;;13.11;100.00
8575;BME280;4325;42.520;27.448;2023-04-19T00:48:38;100567.72;;;13.13;100.00
8575;BME280;4325;42.520;27.448;2023-04-19T00:51:05;100565.19;;;13.17;100.00
8575;BME280;4325;42.520;27.448;2023-04-19T00:53:35;100561.03;;;13.19;100.00
8575;BME280;4325;42.520;27.448;2023-04-19T00:56:03;100562.16;;;13.18;100.00
8575;BME280;4325;42.520;27.448;2023-04-19T00:58:31;100560.00;;;13.15;100.00
8575;BME280;4325;42.520;27.448;2023-04-19T01:00:59;100547.28;;;13.19;100.00
8575;BME280;4325;42.520;27.448;2023-04-19T01:03:26;100552.78;;;13.19;100.00
8575;BME280;4325;42.520;27.448;2023-04-19T01:05:54;100556.66;;;13.18;100.00
8575;BME280;4325;42.520;27.448;2023-04-19T01:08:21;100552.78;;;13.19;100.00
8575;BME280;4325;42.520;27.448;2023-04-19T01:10:48;100548.13;;;13.20;100.00
8575;BME280;4325;42.520;27.448;2023-04-19T01:13:15;100545.06;;;13.21;100.00
8575;BME280;4325;42.520;27.448;2023-04-19T01:15:42;100541.84;;;13.14;100.00
8575;BME280;4325;42.520;27.448;2023-04-19T01:18:11;100536.41;;;13.09;100.00
8575;BME280;4325;42.520;27.448;2023-04-19T01:20:38;100538.94;;;13.06;100.00
8575;BME280;4325;42.520;27.448;2023-04-19T01:23:06;100530.22;;;12.99;100.00
8575;BME280;4325;42.520;27.448;2023-04-19T01:25:36;100526.34;;;13.00;100.00
8575;BME280;4325;42.520;27.448;2023-04-19T01:28:03;100522.25;;;12.97;100.00
8575;BME280;4325;42.520;27.448;2023-04-19T01:30:30;100519.28;;;12.94;100.00
8575;BME280;4325;42.520;27.448;2023-04-19T01:32:57;100531.63;;;12.96;100.00
8575;BME280;4325;42.520;27.448;2023-04-19T01:35:23;100522.03;;;12.94;100.00
8575;BME280;4325;42.520;27.448;2023-04-19T01:37:50;100522.91;;;12.89;100.00
8575;BME280;4325;42.520;27.448;2023-04-19T01:40:22;100519.53;;;12.92;100.00
8575;BME280;4325;42.520;27.448;2023-04-19T01:42:49;100523.44;;;12.91;100.00
8575;BME280;4325;42.520;27.448;2023-04-19T01:45:16;100525.66;;;12.89;100.00
8575;BME280;4325;42.520;27.448;2023-04-19T01:47:43;100525.88;;;12.93;100.00
8575;BME280;4325;42.520;27.448;2023-04-19T01:50:10;100517.03;;;12.96;100.00
8575;BME280;4325;42.520;27.448;2023-04-19T01:52:36;100518.69;;;12.97;100.00
8575;BME280;4325;42.520;27.448;2023-04-19T01:55:03;100522.78;;;12.99;100.00
8575;BME280;4325;42.520;27.448;2023-04-19T01:57:32;100520.31;;;12.98;100.00
8575;BME280;4325;42.520;27.448;2023-04-19T02:00:00;100520.03;;;12.99;100.00
8575;BME280;4325;42.520;27.448;2023-04-19T02:02:27;100518.16;;;12.95;100.00
8575;BME280;4325;42.520;27.448;2023-04-19T02:04:54;100518.97;;;12.95;100.00
8575;BME280;4325;42.520;27.448;2023-04-19T02:07:21;100515.47;;;12.90;100.00
8575;BME280;4325;42.520;27.448;2023-04-19T02:09:47;100521.81;;;12.85;100.00
8575;BME280;4325;42.520;27.448;2023-04-19T02:12:15;100510.56;;;12.87;100.00
8575;BME280;4325;42.520;27.448;2023-04-19T02:14:43;100514.19;;;12.82;100.00
8575;BME280;4325;42.520;27.448;2023-04-19T02:17:10;100513.94;;;12.79;100.00
8575;BME280;4325;42.520;27.448;2023-04-19T02:19:37;100513.41;;;12.77;100.00
8575;BME280;4325;42.520;27.448;2023-04-19T02:22:04;100514.31;;;12.72;100.00
8575;BME280;4325;42.520;27.448;2023-04-19T02:24:31;100509.38;;;12.69;100.00
8575;BME280;4325;42.520;27.448;2023-04-19T02:26:58;100506.34;;;12.71;100.00
8575;BME280;4325;42.520;27.448;2023-04-19T02:29:26;100506.59;;;12.74;100.00
8575;BME280;4325;42.520;27.448;2023-04-19T02:31:54;100507.16;;;12.71;100.00
8575;BME280;4325;42.520;27.448;2023-04-19T02:34:21;100507.16;;;12.71;100.00
8575;BME280;4325;42.520;27.448;2023-04-19T02:36:48;100511.50;;;12.77;100.00
8575;BME280;4325;42.520;27.448;2023-04-19T02:39:15;100507.03;;;12.81;100.00
8575;BME280;4325;42.520;27.448;2023-04-19T02:41:42;100499.38;;;12.78;100.00
8575;BME280;4325;42.520;27.448;2023-04-19T02:44:09;100503.31;;;12.72;100.00
8575;BME280;4325;42.520;27.448;2023-04-19T02:46:35;100491.25;;;12.68;100.00
8575;BME280;4325;42.520;27.448;2023-04-19T02:49:04;100494.53;;;12.70;100.00
8575;BME280;4325;42.520;27.448;2023-04-19T02:51:30;100497.03;;;12.67;100.00
8575;BME280;4325;42.520;27.448;2023-04-19T02:53:57;100493.25;;;12.63;100.00
8575;BME280;4325;42.520;27.448;2023-04-19T02:56:24;100494.03;;;12.63;100.00
8575;BME280;4325;42.520;27.448;2023-04-19T02:58:52;100496.56;;;12.59;100.00
8575;BME280;4325;42.520;27.448;2023-04-19T03:01:19;100483.66;;;12.60;100.00
8575;BME280;4325;42.520;27.448;2023-04-19T03:03:45;100492.44;;;12.62;100.00
8575;BME280;4325;42.520;27.448;2023-04-19T03:06:14;100494.66;;;12.60;100.00
8575;BME280;4325;42.520;27.448;2023-04-19T03:08:41;100481.03;;;12.50;100.00
8575;BME280;4325;42.520;27.448;2023-04-19T03:11:08;100496.88;;;12.58;100.00
8575;BME280;4325;42.520;27.448;2023-04-19T03:13:34;100494.03;;;12.63;100.00
8575;BME280;4325;42.520;27.448;2023-04-19T03:16:01;100500.84;;;12.71;100.00
8575;BME280;4325;42.520;27.448;2023-04-19T03:18:28;100498.34;;;12.74;100.00
8575;BME280;4325;42.520;27.448;2023-04-19T03:20:55;100497.47;;;12.79;100.00
8575;BME280;4325;42.520;27.448;2023-04-19T03:23:24;100489.28;;;12.74;100.00
8575;BME280;4325;42.520;27.448;2023-04-19T03:25:51;100507.28;;;12.85;100.00
8575;BME280;4325;42.520;27.448;2023-04-19T03:28:18;100499.06;;;12.85;100.00
8575;BME280;4325;42.520;27.448;2023-04-19T03:30:45;100495.00;;;12.77;100.00
8575;BME280;4325;42.520;27.448;2023-04-19T03:33:12;100497.00;;;12.72;100.00
8575;BME280;4325;42.520;27.448;2023-04-19T03:35:39;100500.63;;;12.67;100.00
8575;BME280;4325;42.520;27.448;2023-04-19T03:38:05;100495.94;;;12.68;100.00
8575;BME280;4325;42.520;27.448;2023-04-19T03:40:36;100500.38;;;12.64;100.00
8575;BME280;4325;42.520;27.448;2023-04-19T03:43:03;100493.47;;;12.66;100.00
8575;BME280;4325;42.520;27.448;2023-04-19T03:45:30;100491.84;;;12.65;100.00
8575;BME280;4325;42.520;27.448;2023-04-19T03:47:56;100490.78;;;12.61;100.00
8575;BME280;4325;42.520;27.448;2023-04-19T03:50:23;100492.44;;;12.62;100.00
8575;BME280;4325;42.520;27.448;2023-04-19T03:52:50;100495.13;;;12.67;100.00
8575;BME280;4325;42.520;27.448;2023-04-19T03:55:17;100497.88;;;12.67;100.00
8575;BME280;4325;42.520;27.448;2023-04-19T03:57:45;100504.94;;;12.73;100.00
8575;BME280;4325;42.520;27.448;2023-04-19T04:00:13;100497.25;;;12.75;100.00
8575;BME280;4325;42.520;27.448;2023-04-19T04:02:41;100492.78;;;12.79;100.00
8575;BME280;4325;42.520;27.448;2023-04-19T04:05:08;100498.56;;;12.78;100.00
8575;BME280;4325;42.520;27.448;2023-04-19T04:07:35;100492.59;;;12.71;100.00
8575;BME280;4325;42.520;27.448;2023-04-19T04:10:01;100500.50;;;12.77;100.00
8575;BME280;4325;42.520;27.448;2023-04-19T04:12:28;100503.19;;;12.82;100.00
8575;BME280;4325;42.520;27.448;2023-04-19T04:14:56;100501.84;;;12.80;100.00
8575;BME280;4325;42.520;27.448;2023-04-19T04:17:23;100492.84;;;12.74;100.00
8575;BME280;4325;42.520;27.448;2023-04-19T04:19:50;100498.50;;;12.83;100.00
8575;BME280;4325;42.520;27.448;2023-04-19T04:22:17;100490.97;;;12.93;100.00
8575;BME280;4325;42.520;27.448;2023-04-19T04:24:44;100488.78;;;12.90;100.00
8575;BME280;4325;42.520;27.448;2023-04-19T04:27:11;100490.44;;;12.91;100.00
8575;BME280;4325;42.520;27.448;2023-04-19T04:29:38;100494.13;;;13.05;100.00
8575;BME280;4325;42.520;27.448;2023-04-19T04:32:07;100498.63;;;13.20;100.00
8575;BME280;4325;42.520;27.448;2023-04-19T04:34:34;100495.97;;;13.34;100.00
8575;BME280;4325;42.520;27.448;2023-04-19T04:37:02;100498.00;;;13.47;100.00
8575;BME280;4325;42.520;27.448;2023-04-19T04:39:29;100487.44;;;13.54;100.00
8575;BME280;4325;42.520;27.448;2023-04-19T04:41:59;100496.44;;;13.59;100.00
8575;BME280;4325;42.520;27.448;2023-04-19T04:44:26;100499.50;;;13.58;100.00
8575;BME280;4325;42.520;27.448;2023-04-19T04:46:53;100500.38;;;13.53;100.00
8575;BME280;4325;42.520;27.448;2023-04-19T04:49:21;100508.88;;;13.57;100.00
8575;BME280;4325;42.520;27.448;2023-04-19T04:51:48;100501.72;;;13.56;100.00
8575;BME280;4325;42.520;27.448;2023-04-19T04:54:15;100495.63;;;13.59;100.00
8575;BME280;4325;42.520;27.448;2023-04-19T04:56:42;100494.13;;;13.66;100.00
8575;BME280;4325;42.520;27.448;2023-04-19T04:59:08;100493.69;;;13.78;100.00
8575;BME280;4325;42.520;27.448;2023-04-19T05:01:35;100490.19;;;13.91;100.00
8575;BME280;4325;42.520;27.448;2023-04-19T05:04:02;100500.53;;;13.99;100.00
8575;BME280;4325;42.520;27.448;2023-04-19T05:06:30;100494.31;;;14.07;100.00
8575;BME280;4325;42.520;27.448;2023-04-19T05:08:57;100498.91;;;14.12;100.00
8575;BME280;4325;42.520;27.448;2023-04-19T05:11:24;100499.38;;;14.19;100.00
8575;BME280;4325;42.520;27.448;2023-04-19T05:13:52;100501.13;;;14.28;100.00
8575;BME280;4325;42.520;27.448;2023-04-19T05:16:19;100502.50;;;14.44;100.00
8575;BME280;4325;42.520;27.448;2023-04-19T05:18:46;100494.56;;;14.57;100.00
8575;BME280;4325;42.520;27.448;2023-04-19T05:21:13;100500.50;;;14.64;100.00
8575;BME280;4325;42.520;27.448;2023-04-19T05:23:41;100498.06;;;14.76;100.00
8575;BME280;4325;42.520;27.448;2023-04-19T05:26:08;100496.44;;;14.88;100.00
8575;BME280;4325;42.520;27.448;2023-04-19T05:28:37;100496.03;;;15.08;100.00
8575;BME280;4325;42.520;27.448;2023-04-19T05:31:03;100501.81;;;15.34;100.00
8575;BME280;4325;42.520;27.448;2023-04-19T05:33:31;100500.09;;;15.52;100.00
8575;BME280;4325;42.520;27.448;2023-04-19T05:35:57;100502.94;;;15.60;100.00
8575;BME280;4325;42.520;27.448;2023-04-19T05:38:24;100505.22;;;15.80;100.00
8575;BME280;4325;42.520;27.448;2023-04-19T05:40:52;100507.16;;;16.16;100.00
8575;BME280;4325;42.520;27.448;2023-04-19T05:43:19;100512.34;;;16.62;100.00
8575;BME280;4325;42.520;27.448;2023-04-19T05:45:47;100509.06;;;16.90;100.00
8575;BME280;4325;42.520;27.448;2023-04-19T05:48:14;100514.72;;;17.25;100.00
8575;BME280;4325;42.520;27.448;2023-04-19T05:50:40;100513.69;;;17.68;100.00
8575;BME280;4325;42.520;27.448;2023-04-19T05:53:07;100515.97;;;18.01;100.00
8575;BME280;4325;42.520;27.448;2023-04-19T05:55:34;100523.44;;;18.26;100.00
8575;BME280;4325;42.520;27.448;2023-04-19T05:58:02;100519.69;;;18.48;100.00
8575;BME280;4325;42.520;27.448;2023-04-19T06:00:29;100513.50;;;18.51;100.00
8575;BME280;4325;42.520;27.448;2023-04-19T06:02:56;100518.22;;;18.41;100.00
8575;BME280;4325;42.520;27.448;2023-04-19T06:05:23;100522.81;;;18.29;100.00
8575;BME280;4325;42.520;27.448;2023-04-19T06:07:50;100516.63;;;18.06;100.00
8575;BME280;4325;42.520;27.448;2023-04-19T06:10:20;100515.97;;;17.92;100.00
8575;BME280;4325;42.520;27.448;2023-04-19T06:12:47;100520.53;;;17.79;100.00
8575;BME280;4325;42.520;27.448;2023-04-19T06:15:15;100515.97;;;17.84;100.00
8575;BME280;4325;42.520;27.448;2023-04-19T06:17:42;100524.28;;;17.92;100.00
8575;BME280;4325;42.520;27.448;2023-04-19T06:20:09;100520.22;;;17.98;100.00
8575;BME280;4325;42.520;27.448;2023-04-19T06:22:41;100525.91;;;17.93;100.00
8575;BME280;4325;42.520;27.448;2023-04-19T06:25:09;100529.16;;;17.78;100.00
8575;BME280;4325;42.520;27.448;2023-04-19T06:27:36;100531.25;;;17.55;100.00
8575;BME280;4325;42.520;27.448;2023-04-19T06:30:03;100528.41;;;17.38;100.00
8575;BME280;4325;42.520;27.448;2023-04-19T06:32:31;100539.75;;;17.28;100.00
8575;BME280;4325;42.520;27.448;2023-04-19T06:34:58;100536.84;;;17.25;100.00
8575;BME280;4325;42.520;27.448;2023-04-19T06:37:25;100541.38;;;17.21;100.00
8575;BME280;4325;42.520;27.448;2023-04-19T06:39:52;100534.22;;;17.20;100.00
8575;BME280;4325;42.520;27.448;2023-04-19T06:42:18;100541.50;;;17.07;100.00
8575;BME280;4325;42.520;27.448;2023-04-19T06:44:45;100536.22;;;16.97;100.00
8575;BME280;4325;42.520;27.448;2023-04-19T06:47:12;100538.97;;;16.88;100.00
8575;BME280;4325;42.520;27.448;2023-04-19T06:49:40;100540.22;;;16.82;100.00
8575;BME280;4325;42.520;27.448;2023-04-19T06:52:07;100544.16;;;16.81;100.00
8575;BME280;4325;42.520;27.448;2023-04-19T06:54:34;100546.59;;;16.83;100.00
8575;BME280;4325;42.520;27.448;2023-04-19T06:57:01;100548.03;;;16.80;100.00
8575;BME280;4325;42.520;27.448;2023-04-19T06:59:28;100542.19;;;16.82;100.00
8575;BME280;4325;42.520;27.448;2023-04-19T07:01:57;100548.59;;;16.91;100.00
8575;BME280;4325;42.520;27.448;2023-04-19T07:04:24;100546.00;;;16.94;100.00
8575;BME280;4325;42.520;27.448;2023-04-19T07:06:53;100558.56;;;17.00;100.00
8575;BME280;4325;42.520;27.448;2023-04-19T07:09:20;100554.81;;;17.05;100.00
8575;BME280;4325;42.520;27.448;2023-04-19T07:11:46;100559.88;;;17.03;100.00
8575;BME280;4325;42.520;27.448;2023-04-19T07:14:15;100564.25;;;17.04;100.00
8575;BME280;4325;42.520;27.448;2023-04-19T07:16:43;100553.03;;;17.00;100.00
8575;BME280;4325;42.520;27.448;2023-04-19T07:19:10;100568.34;;;17.06;100.00
8575;BME280;4325;42.520;27.448;2023-04-19T07:21:37;100568.34;;;17.06;100.00
8575;BME280;4325;42.520;27.448;2023-04-19T07:24:06;100573.88;;;17.06;100.00
8575;BME280;4325;42.520;27.448;2023-04-19T07:26:33;100572.38;;;17.00;100.00
8575;BME280;4325;42.520;27.448;2023-04-19T07:29:00;100576.06;;;16.87;100.00
8575;BME280;4325;42.520;27.448;2023-04-19T07:31:27;100578.09;;;16.73;100.00
8575;BME280;4325;42.520;27.448;2023-04-19T07:33:54;100575.59;;;16.63;100.00
8575;BME280;4325;42.520;27.448;2023-04-19T07:36:21;100575.22;;;16.56;100.00
8575;BME280;4325;42.520;27.448;2023-04-19T07:38:47;100584.88;;;16.45;100.00
8575;BME280;4325;42.520;27.448;2023-04-19T07:41:16;100582.97;;;16.32;100.00
8575;BME280;4325;42.520;27.448;2023-04-19T07:43:42;100583.84;;;16.19;100.00
8575;BME280;4325;42.520;27.448;2023-04-19T07:46:10;100583.28;;;16.08;100.00
8575;BME280;4325;42.520;27.448;2023-04-19T07:48:37;100583.78;;;16.10;100.00
8575;BME280;4325;42.520;27.448;2023-04-19T07:51:08;100577.94;;;16.12;100.00
8575;BME280;4325;42.520;27.448;2023-04-19T07:53:36;100579.88;;;16.11;100.00
8575;BME280;4325;42.520;27.448;2023-04-19T07:56:04;100579.56;;;16.13;100.00
8575;BME280;4325;42.520;27.448;2023-04-19T07:58:32;100583.47;;;16.12;100.00
8575;BME280;4325;42.520;27.448;2023-04-19T08:00:59;100583.56;;;16.07;100.00
8575;BME280;4325;42.520;27.448;2023-04-19T08:03:26;100585.84;;;16.05;100.00
8575;BME280;4325;42.520;27.448;2023-04-19T08:05:53;100582.34;;;16.13;100.00
8575;BME280;4325;42.520;27.448;2023-04-19T08:08:20;100579.84;;;16.25;100.00
8575;BME280;4325;42.520;27.448;2023-04-19T08:10:47;100586.50;;;16.46;100.00
8575;BME280;4325;42.520;27.448;2023-04-19T08:13:14;100580.34;;;16.71;100.00
8575;BME280;4325;42.520;27.448;2023-04-19T08:15:44;100587.97;;;16.96;100.00
8575;BME280;4325;42.520;27.448;2023-04-19T08:18:11;100586.78;;;17.20;100.00
8575;BME280;4325;42.520;27.448;2023-04-19T08:20:37;100586.56;;;17.47;100.00
8575;BME280;4325;42.520;27.448;2023-04-19T08:23:06;100587.81;;;17.71;100.00
8575;BME280;4325;42.520;27.448;2023-04-19T08:25:33;100591.72;;;17.96;100.00
8575;BME280;4325;42.520;27.448;2023-04-19T08:28:01;100582.13;;;18.11;100.00
8575;BME280;4325;42.520;27.448;2023-04-19T08:30:28;100588.66;;;18.15;100.00
8575;BME280;4325;42.520;27.448;2023-04-19T08:32:56;100585.56;;;18.16;100.00
8575;BME280;4325;42.520;27.448;2023-04-19T08:35:23;100589.16;;;18.17;100.00
8575;BME280;4325;42.520;27.448;2023-04-19T08:37:50;100584.28;;;18.22;100.00
8575;BME280;4325;42.520;27.448;2023-04-19T08:40:17;100589.66;;;18.27;100.00
8575;BME280;4325;42.520;27.448;2023-04-19T08:42:44;100592.59;;;18.39;100.00
8575;BME280;4325;42.520;27.448;2023-04-19T08:45:11;100587.84;;;18.57;99.41
8575;BME280;4325;42.520;27.448;2023-04-19T08:47:40;100588.47;;;18.80;96.27
8575;BME280;4325;42.520;27.448;2023-04-19T08:50:09;100592.97;;;19.10;95.52
8575;BME280;4325;42.520;27.448;2023-04-19T08:52:37;100587.47;;;19.31;91.86
8575;BME280;4325;42.520;27.448;2023-04-19T08:55:06;100593.25;;;19.55;90.65
8575;BME280;4325;42.520;27.448;2023-04-19T08:57:34;100600.41;;;19.64;88.48
8575;BME280;4325;42.520;27.448;2023-04-19T09:00:02;100594.94;;;19.76;87.39
8575;BME280;4325;42.520;27.448;2023-04-19T09:02:43;100592.44;;;19.84;84.63
8575;BME280;4325;42.520;27.448;2023-04-19T09:05:12;100599.16;;;20.03;84.58
8575;BME280;4325;42.520;27.448;2023-04-19T09:07:39;100593.56;;;20.32;83.35
8575;BME280;4325;42.520;27.448;2023-04-19T09:10:08;100598.75;;;20.75;81.59
8575;BME280;4325;42.520;27.448;2023-04-19T09:12:36;100602.06;;;21.01;75.85
8575;BME280;4325;42.520;27.448;2023-04-19T09:15:04;100608.16;;;21.16;73.46
8575;BME280;4325;42.520;27.448;2023-04-19T09:17:34;100594.16;;;21.03;71.78
8575;BME280;4325;42.520;27.448;2023-04-19T09:20:01;100604.81;;;20.89;71.88
8575;BME280;4325;42.520;27.448;2023-04-19T09:22:31;100604.47;;;20.58;72.36
8575;BME280;4325;42.520;27.448;2023-04-19T09:24:58;100610.03;;;20.17;73.86
8575;BME280;4325;42.520;27.448;2023-04-19T09:27:27;100608.13;;;19.88;76.39
8575;BME280;4325;42.520;27.448;2023-04-19T09:29:54;100606.03;;;19.76;78.60
8575;BME280;4325;42.520;27.448;2023-04-19T09:32:21;100609.28;;;19.78;80.15
8575;BME280;4325;42.520;27.448;2023-04-19T09:34:53;100613.69;;;20.09;79.60
8575;BME280;4325;42.520;27.448;2023-04-19T09:37:20;100602.78;;;20.45;76.43
8575;BME280;4325;42.520;27.448;2023-04-19T09:39:49;100609.69;;;20.92;74.28
8575;BME280;4325;42.520;27.448;2023-04-19T09:42:16;100606.56;;;21.39;71.18
8575;BME280;4325;42.520;27.448;2023-04-19T09:44:56;100604.47;;;21.72;68.78
8575;BME280;4325;42.520;27.448;2023-04-19T09:47:25;100615.38;;;22.01;66.37
8575;BME280;4325;42.520;27.448;2023-04-19T09:50:10;100612.72;;;22.05;63.56
8575;BME280;4325;42.520;27.448;2023-04-19T09:52:37;100610.97;;;22.00;62.23
8575;BME280;4325;42.520;27.448;2023-04-19T09:55:06;100610.97;;;21.76;60.64
8575;BME280;4325;42.520;27.448;2023-04-19T09:57:33;100614.69;;;21.56;61.29
8575;BME280;4325;42.520;27.448;2023-04-19T10:00:00;100613.06;;;21.43;62.09
8575;BME280;4325;42.520;27.448;2023-04-19T10:02:31;100617.56;;;21.35;63.11
8575;BME280;4325;42.520;27.448;2023-04-19T10:04:58;100612.44;;;21.25;63.56
8575;BME280;4325;42.520;27.448;2023-04-19T10:07:27;100620.09;;;21.16;64.55
8575;BME280;4325;42.520;27.448;2023-04-19T10:09:54;100618.72;;;20.89;63.02
8575;BME280;4325;42.520;27.448;2023-04-19T10:12:25;100608.81;;;20.47;64.35
8575;BME280;4325;42.520;27.448;2023-04-19T10:14:53;100615.25;;;20.18;66.93
8575;BME280;4325;42.520;27.448;2023-04-19T10:17:22;100612.47;;;19.98;68.47
8575;BME280;4325;42.520;27.448;2023-04-19T10:19:54;100613.63;;;19.67;70.33
8575;BME280;4325;42.520;27.448;2023-04-19T10:22:23;100621.94;;;19.38;72.67
8575;BME280;4325;42.520;27.448;2023-04-19T10:25:10;100617.44;;;19.08;75.81
8575;BME280;4325;42.520;27.448;2023-04-19T10:27:39;100622.72;;;18.92;77.60
8575;BME280;4325;42.520;27.448;2023-04-19T10:30:16;100621.75;;;18.80;80.28
8575;BME280;4325;42.520;27.448;2023-04-19T10:32:45;100619.00;;;18.71;80.65
8575;BME280;4325;42.520;27.448;2023-04-19T10:35:17;100624.06;;;18.61;82.64
8575;BME280;4325;42.520;27.448;2023-04-19T10:38:02;100618.34;;;18.57;84.32
8575;BME280;4325;42.520;27.448;2023-04-19T10:40:55;100625.53;;;18.58;84.09
8575;BME280;4325;42.520;27.448;2023-04-19T10:43:25;100616.09;;;18.59;83.36
8575;BME280;4325;42.520;27.448;2023-04-19T10:45:52;100625.72;;;18.62;83.77
8575;BME280;4325;42.520;27.448;2023-04-19T10:48:39;100618.19;;;18.71;82.02
8575;BME280;4325;42.520;27.448;2023-04-19T10:51:13;100629.25;;;18.88;81.06
8575;BME280;4325;42.520;27.448;2023-04-19T10:53:59;100626.56;;;19.17;78.78
8575;BME280;4325;42.520;27.448;2023-04-19T10:59:37;100619.78;;;19.44;75.34
8575;BME280;4325;42.520;27.448;2023-04-19T11:02:28;100629.13;;;19.39;75.46
8575;BME280;4325;42.520;27.448;2023-04-19T11:04:59;100627.56;;;19.59;74.21
8575;BME280;4325;42.520;27.448;2023-04-19T11:07:26;100618.41;;;19.88;72.57
8575;BME280;4325;42.520;27.448;2023-04-19T11:09:53;100624.16;;;20.32;70.06
8575;BME280;4325;42.520;27.448;2023-04-19T11:12:20;100628.13;;;20.85;66.20
8575;BME280;4325;42.520;27.448;2023-04-19T11:14:51;100626.16;;;21.54;63.82
8575;BME280;4325;42.520;27.448;2023-04-19T11:17:20;100629.03;;;22.30;60.55
8575;BME280;4325;42.520;27.448;2023-04-19T11:19:53;100625.97;;;23.03;55.10
8575;BME280;4325;42.520;27.448;2023-04-19T11:22:24;100621.28;;;24.01;50.81
8575;BME280;4325;42.520;27.448;2023-04-19T11:24:52;100618.34;;;25.28;46.70
8575;BME280;4325;42.520;27.448;2023-04-19T11:27:20;100614.66;;;26.48;43.29
8575;BME280;4325;42.520;27.448;2023-04-19T11:29:48;100615.94;;;27.24;40.47
8575;BME280;4325;42.520;27.448;2023-04-19T11:32:15;100619.28;;;27.36;40.13
8575;BME280;4325;42.520;27.448;2023-04-19T11:34:42;100623.41;;;27.09;40.24
8575;BME280;4325;42.520;27.448;2023-04-19T11:37:09;100615.44;;;26.48;40.85
8575;BME280;4325;42.520;27.448;2023-04-19T11:39:44;100617.78;;;25.41;41.64
8575;BME280;4325;42.520;27.448;2023-04-19T11:42:16;100627.88;;;24.43;43.66
8575;BME280;4325;42.520;27.448;2023-04-19T11:44:49;100621.34;;;23.70;45.91
8575;BME280;4325;42.520;27.448;2023-04-19T11:47:16;100619.03;;;23.13;48.21
8575;BME280;4325;42.520;27.448;2023-04-19T11:49:43;100611.94;;;22.72;49.52
8575;BME280;4325;42.520;27.448;2023-04-19T11:52:10;100612.47;;;22.50;51.05
8575;BME280;4325;42.520;27.448;2023-04-19T11:54:37;100620.25;;;22.16;50.65
8575;BME280;4325;42.520;27.448;2023-04-19T11:57:05;100621.19;;;21.72;51.43
8575;BME280;4325;42.520;27.448;2023-04-19T11:59:34;100610.47;;;21.14;53.08
8575;BME280;4325;42.520;27.448;2023-04-19T12:02:06;100607.06;;;20.63;56.35
8575;BME280;4325;42.520;27.448;2023-04-19T12:04:34;100613.59;;;20.26;58.25
8575;BME280;4325;42.520;27.448;2023-04-19T12:07:02;100610.16;;;20.00;60.24
8575;BME280;4325;42.520;27.448;2023-04-19T12:09:32;100603.22;;;19.85;62.43
8575;BME280;4325;42.520;27.448;2023-04-19T12:11:59;100608.72;;;19.64;63.69
8575;BME280;4325;42.520;27.448;2023-04-19T12:14:26;100613.59;;;19.47;65.93
8575;BME280;4325;42.520;27.448;2023-04-19T12:17:06;100607.56;;;19.36;67.38
8575;BME280;4325;42.520;27.448;2023-04-19T12:19:34;100608.88;;;19.30;67.66
8575;BME280;4325;42.520;27.448;2023-04-19T12:22:12;100609.56;;;19.27;68.08
8575;BME280;4325;42.520;27.448;2023-04-19T12:24:39;100603.63;;;19.37;67.96
8575;BME280;4325;42.520;27.448;2023-04-19T12:27:06;100601.66;;;19.46;67.32
8575;BME280;4325;42.520;27.448;2023-04-19T12:29:34;100595.13;;;19.71;65.99
8575;BME280;4325;42.520;27.448;2023-04-19T12:32:01;100594.44;;;20.04;63.72
8575;BME280;4325;42.520;27.448;2023-04-19T12:34:29;100588.22;;;20.48;60.91
8575;BME280;4325;42.520;27.448;2023-04-19T12:36:56;100591.13;;;20.84;58.53
8575;BME280;4325;42.520;27.448;2023-04-19T12:39:23;100594.69;;;21.18;56.81
8575;BME280;4325;42.520;27.448;2023-04-19T12:41:50;100583.47;;;21.62;55.14
8575;BME280;4325;42.520;27.448;2023-04-19T12:44:17;100589.13;;;22.02;52.04
8575;BME280;4325;42.520;27.448;2023-04-19T12:46:44;100583.38;;;22.63;50.52
8575;BME280;4325;42.520;27.448;2023-04-19T12:49:10;100594.25;;;23.27;49.09
8575;BME280;4325;42.520;27.448;2023-04-19T12:51:39;100585.75;;;23.86;46.75
8575;BME280;4325;42.520;27.448;2023-04-19T12:54:06;100581.41;;;24.04;44.75
8575;BME280;4325;42.520;27.448;2023-04-19T12:56:33;100592.94;;;24.37;44.02
8575;BME280;4325;42.520;27.448;2023-04-19T12:59:00;100587.47;;;24.44;42.58
8575;BME280;4325;42.520;27.448;2023-04-19T13:01:27;100588.69;;;24.43;42.51